Time,TemperatureF,DewpointF,PressureIn,WindDirection,WindDirectionDegrees,WindSpeedMPH,WindSpeedGustMPH,Humidity,HourlyPrecipIn,Conditions,Clouds,dailyrainin,SoftwareType,DateUTC
2013-03-22 00:01:00,73.0,67.3,30.04,WNW,302,3.0,4.0,82,0.00,,,0.00,meteohub,2013-03-22 10:01:00,
2013-03-22 00:06:00,72.9,66.7,30.04,NW,304,1.0,3.0,81,0.00,,,0.00,meteohub,2013-03-22 10:06:00,
2013-03-22 00:11:00,72.9,66.7,30.04,NW,306,0.0,3.0,81,0.00,,,0.00,meteohub,2013-03-22 10:11:00,
2013-03-22 00:16:00,72.9,66.7,30.04,NW,306,1.0,3.0,81,0.00,,,0.00,meteohub,2013-03-22 10:16:00,
2013-03-22 00:21:00,72.9,66.7,30.04,NW,307,0.0,2.0,81,0.00,,,0.00,meteohub,2013-03-22 10:21:00,
2013-03-22 00:27:00,72.7,66.6,30.04,NW,308,0.0,1.0,81,0.00,,,0.00,meteohub,2013-03-22 10:27:00,
2013-03-22 00:32:00,72.7,66.6,30.04,NW,308,0.0,1.0,81,0.00,,,0.00,meteohub,2013-03-22 10:32:00,
2013-03-22 00:37:00,72.5,66.4,30.04,NW,325,0.0,1.0,81,0.00,,,0.00,meteohub,2013-03-22 10:37:00,
2013-03-22 00:42:00,72.3,66.2,30.03,NNW,335,1.0,1.0,81,0.00,,,0.00,meteohub,2013-03-22 10:42:00,
2013-03-22 00:47:00,72.3,66.2,30.03,NW,321,3.0,3.0,81,0.00,,,0.00,meteohub,2013-03-22 10:47:00,
2013-03-22 00:52:00,72.3,66.6,30.03,North,356,0.0,3.0,82,0.00,,,0.00,meteohub,2013-03-22 10:52:00,
2013-03-22 00:57:00,72.1,66.4,30.03,NNE,27,0.0,3.0,82,0.00,,,0.00,meteohub,2013-03-22 10:57:00,
2013-03-22 01:02:00,72.1,66.4,30.03,NNE,25,0.0,4.0,82,0.00,,,0.00,meteohub,2013-03-22 11:02:00,
2013-03-22 01:07:00,72.0,66.2,30.04,NE,36,0.0,4.0,82,0.00,,,0.00,meteohub,2013-03-22 11:07:00,
2013-03-22 01:12:00,72.0,66.2,30.03,NE,34,3.0,4.0,82,0.00,,,0.00,meteohub,2013-03-22 11:12:00,
2013-03-22 01:17:00,72.1,66.0,30.03,NE,50,3.0,4.0,81,0.00,,,0.00,meteohub,2013-03-22 11:17:00,
2013-03-22 01:23:00,72.3,66.2,30.03,NE,51,1.0,4.0,81,0.00,,,0.00,meteohub,2013-03-22 11:23:00,
2013-03-22 01:28:00,72.3,65.8,30.03,NE,56,2.0,4.0,80,0.00,,,0.00,meteohub,2013-03-22 11:28:00,
2013-03-22 01:33:00,72.7,66.2,30.02,NE,36,1.0,4.0,80,0.00,,,0.00,meteohub,2013-03-22 11:33:00,
2013-03-22 01:39:00,72.7,65.8,30.02,NE,43,2.0,4.0,79,0.00,,,0.00,meteohub,2013-03-22 11:39:00,
2013-03-22 01:44:00,72.9,65.7,30.02,NNE,22,2.0,4.0,78,0.00,,,0.00,meteohub,2013-03-22 11:44:00,
2013-03-22 01:49:00,73.0,65.8,30.01,NNE,32,2.0,4.0,78,0.00,,,0.00,meteohub,2013-03-22 11:49:00,
2013-03-22 01:54:00,72.9,65.7,30.01,NE,56,2.0,4.0,78,0.00,,,0.00,meteohub,2013-03-22 11:54:00,
2013-03-22 01:59:00,72.7,65.1,30.00,NE,51,2.0,4.0,77,0.00,,,0.00,meteohub,2013-03-22 11:59:00,
2013-03-22 02:04:00,72.7,64.8,30.00,NE,44,2.0,4.0,76,0.00,,,0.00,meteohub,2013-03-22 12:04:00,
2013-03-22 02:10:00,72.3,64.4,30.00,NE,36,1.0,5.0,76,0.00,,,0.00,meteohub,2013-03-22 12:10:00,
2013-03-22 02:15:00,72.3,64.4,29.99,NE,51,1.0,5.0,76,0.00,,,0.00,meteohub,2013-03-22 12:15:00,
2013-03-22 02:20:00,72.1,64.2,29.99,NE,51,0.0,5.0,76,0.00,,,0.00,meteohub,2013-03-22 12:20:00,
2013-03-22 02:25:00,72.1,64.2,29.99,NNE,27,0.0,2.0,76,0.00,,,0.00,meteohub,2013-03-22 12:25:00,
2013-03-22 02:30:00,72.0,64.0,29.99,NNW,342,0.0,2.0,76,0.00,,,0.00,meteohub,2013-03-22 12:30:00,
2013-03-22 02:36:00,72.0,64.0,29.98,NW,319,2.0,2.0,76,0.00,,,0.00,meteohub,2013-03-22 12:36:00,
2013-03-22 02:41:00,71.8,64.2,29.98,NNW,328,0.0,3.0,77,0.00,,,0.00,meteohub,2013-03-22 12:41:00,
2013-03-22 02:46:00,71.6,64.0,29.98,NE,48,0.0,3.0,77,0.00,,,0.00,meteohub,2013-03-22 12:46:00,
2013-03-22 02:51:00,71.2,63.7,29.98,ENE,70,0.0,3.0,77,0.00,,,0.00,meteohub,2013-03-22 12:51:00,
2013-03-22 02:57:00,71.2,63.3,29.97,NE,40,2.0,2.0,76,0.00,,,0.00,meteohub,2013-03-22 12:57:00,
2013-03-22 03:02:00,71.6,63.7,29.97,ENE,63,4.0,5.0,76,0.00,,,0.00,meteohub,2013-03-22 13:02:00,
2013-03-22 03:07:00,72.0,63.7,29.96,ENE,60,5.0,5.0,75,0.00,,,0.00,meteohub,2013-03-22 13:07:00,
2013-03-22 03:12:00,72.3,63.5,29.96,NE,51,0.0,5.0,74,0.00,,,0.00,meteohub,2013-03-22 13:12:00,
2013-03-22 03:17:00,72.3,62.8,29.95,NNE,16,1.0,5.0,72,0.00,,,0.00,meteohub,2013-03-22 13:17:00,
2013-03-22 03:22:00,72.5,63.0,29.96,NNE,20,1.0,5.0,72,0.00,,,0.00,meteohub,2013-03-22 13:22:00,
2013-03-22 03:27:00,72.5,63.0,29.96,NNE,23,1.0,3.0,72,0.00,,,0.00,meteohub,2013-03-22 13:27:00,
2013-03-22 03:33:00,72.3,62.8,29.95,NNE,27,0.0,3.0,72,0.00,,,0.00,meteohub,2013-03-22 13:33:00,
2013-03-22 03:38:00,72.1,62.6,29.95,NNE,27,0.0,2.0,72,0.00,,,0.00,meteohub,2013-03-22 13:38:00,
2013-03-22 03:43:00,72.0,62.4,29.96,NNE,33,0.0,1.0,72,0.00,,,0.00,meteohub,2013-03-22 13:43:00,
2013-03-22 03:48:00,72.0,62.4,29.96,NNE,33,0.0,2.0,72,0.00,,,0.00,meteohub,2013-03-22 13:48:00,
2013-03-22 03:53:00,71.8,62.2,29.97,NNE,33,0.0,2.0,72,0.00,,,0.00,meteohub,2013-03-22 13:53:00,
2013-03-22 03:59:00,71.6,62.1,29.96,ESE,103,1.0,2.0,72,0.00,,,0.00,meteohub,2013-03-22 13:59:00,
2013-03-22 04:04:00,71.1,61.5,29.96,East,98,2.0,2.0,72,0.00,,,0.00,meteohub,2013-03-22 14:04:00,
2013-03-22 04:09:00,71.1,61.9,29.97,ESE,112,0.0,2.0,73,0.00,,,0.00,meteohub,2013-03-22 14:09:00,
2013-03-22 04:15:00,70.9,61.3,29.97,East,99,1.0,2.0,72,0.00,,,0.00,meteohub,2013-03-22 14:15:00,
2013-03-22 04:20:00,71.1,61.5,29.97,East,84,1.0,2.0,72,0.00,,,0.00,meteohub,2013-03-22 14:20:00,
2013-03-22 04:25:00,71.2,62.1,29.98,NW,323,0.0,2.0,73,0.00,,,0.00,meteohub,2013-03-22 14:25:00,
2013-03-22 04:30:00,71.1,62.4,29.98,NE,50,3.0,3.0,74,0.00,,,0.00,meteohub,2013-03-22 14:30:00,
2013-03-22 04:35:00,71.2,62.6,29.98,ENE,65,0.0,3.0,74,0.00,,,0.00,meteohub,2013-03-22 14:35:00,
2013-03-22 04:41:00,71.2,62.6,29.98,ENE,65,0.0,3.0,74,0.00,,,0.00,meteohub,2013-03-22 14:41:00,
2013-03-22 04:46:00,71.2,62.6,29.98,ENE,65,0.0,3.0,74,0.00,,,0.00,meteohub,2013-03-22 14:46:00,
2013-03-22 04:51:00,71.6,63.0,29.97,NE,51,0.0,1.0,74,0.00,,,0.00,meteohub,2013-03-22 14:51:00,
2013-03-22 04:57:00,72.1,63.3,29.96,NNE,32,1.0,4.0,74,0.00,,,0.00,meteohub,2013-03-22 14:57:00,
2013-03-22 05:02:00,72.3,63.5,29.97,ENE,57,0.0,4.0,74,0.00,,,0.00,meteohub,2013-03-22 15:02:00,
2013-03-22 05:07:00,72.5,63.7,29.97,NE,53,1.0,4.0,74,0.00,,,0.00,meteohub,2013-03-22 15:07:00,
2013-03-22 05:12:00,72.3,63.1,29.96,NE,53,0.0,3.0,73,0.00,,,0.00,meteohub,2013-03-22 15:12:00,
2013-03-22 05:17:00,72.3,63.5,29.96,NW,322,0.0,1.0,74,0.00,,,0.00,meteohub,2013-03-22 15:17:00,
2013-03-22 05:23:00,72.3,63.5,29.96,NNW,341,0.0,1.0,74,0.00,,,0.00,meteohub,2013-03-22 15:23:00,
2013-03-22 05:28:00,72.3,63.5,29.97,NW,319,1.0,2.0,74,0.00,,,0.00,meteohub,2013-03-22 15:28:00,
2013-03-22 05:33:00,72.1,63.3,29.97,North,353,0.0,2.0,74,0.00,,,0.00,meteohub,2013-03-22 15:33:00,
2013-03-22 05:38:00,72.1,63.3,29.99,NE,53,0.0,2.0,74,0.00,,,0.00,meteohub,2013-03-22 15:38:00,
2013-03-22 05:43:00,72.0,63.1,29.98,East,94,1.0,2.0,74,0.00,,,0.00,meteohub,2013-03-22 15:43:00,
2013-03-22 05:48:00,71.6,63.0,29.98,ENE,71,0.0,2.0,74,0.00,,,0.00,meteohub,2013-03-22 15:48:00,
2013-03-22 05:53:00,71.6,63.0,29.99,ENE,71,1.0,3.0,74,0.00,,,0.00,meteohub,2013-03-22 15:53:00,
2013-03-22 05:59:00,71.4,62.8,29.99,ENE,71,0.0,3.0,74,0.00,,,0.00,meteohub,2013-03-22 15:59:00,
2013-03-22 06:04:00,71.4,62.8,29.99,ENE,75,1.0,3.0,74,0.00,,,0.00,meteohub,2013-03-22 16:04:00,
2013-03-22 06:09:00,71.2,62.6,29.99,NW,326,0.0,3.0,74,0.00,,,0.00,meteohub,2013-03-22 16:09:00,
2013-03-22 06:15:00,71.4,63.1,29.99,NNE,32,2.0,3.0,75,0.00,,,0.00,meteohub,2013-03-22 16:15:00,
2013-03-22 06:20:00,71.8,63.0,29.99,NE,43,1.0,5.0,74,0.00,,,0.00,meteohub,2013-03-22 16:20:00,
2013-03-22 06:25:00,72.0,63.1,29.99,NE,56,1.0,5.0,74,0.00,,,0.00,meteohub,2013-03-22 16:25:00,
2013-03-22 06:31:00,72.0,63.1,30.00,NE,56,0.0,3.0,74,0.00,,,0.00,meteohub,2013-03-22 16:31:00,
2013-03-22 06:36:00,71.8,63.0,30.00,NE,55,0.0,3.0,74,0.00,,,0.00,meteohub,2013-03-22 16:36:00,
2013-03-22 06:41:00,71.8,63.0,29.99,ENE,75,1.0,1.0,74,0.00,,,0.00,meteohub,2013-03-22 16:41:00,
2013-03-22 06:47:00,71.8,63.0,29.99,ENE,75,0.0,3.0,74,0.00,,,0.00,meteohub,2013-03-22 16:47:00,
2013-03-22 06:52:00,71.6,63.0,30.00,ENE,75,0.0,3.0,74,0.00,,,0.00,meteohub,2013-03-22 16:52:00,
2013-03-22 06:57:00,71.6,63.0,30.00,ENE,59,1.0,2.0,74,0.00,,,0.00,meteohub,2013-03-22 16:57:00,
2013-03-22 07:02:00,71.6,63.0,30.00,NE,54,1.0,1.0,74,0.00,,,0.00,meteohub,2013-03-22 17:02:00,
2013-03-22 07:07:00,71.6,63.0,30.00,NE,50,1.0,2.0,74,0.00,,,0.00,meteohub,2013-03-22 17:07:00,
2013-03-22 07:12:00,71.4,63.1,30.00,ENE,58,1.0,2.0,75,0.00,,,0.00,meteohub,2013-03-22 17:12:00,
2013-03-22 07:17:00,71.4,63.1,30.01,ENE,58,1.0,2.0,75,0.00,,,0.00,meteohub,2013-03-22 17:17:00,
2013-03-22 07:22:00,72.0,63.7,30.01,ENE,60,0.0,2.0,75,0.00,,,0.00,meteohub,2013-03-22 17:22:00,
2013-03-22 07:27:00,72.3,63.5,30.01,ENE,59,0.0,2.0,74,0.00,,,0.00,meteohub,2013-03-22 17:27:00,
2013-03-22 07:33:00,73.0,63.9,30.01,ENE,60,0.0,2.0,73,0.00,,,0.00,meteohub,2013-03-22 17:33:00,
2013-03-22 07:38:00,74.1,64.9,30.01,ENE,59,0.0,1.0,73,0.00,,,0.00,meteohub,2013-03-22 17:38:00,
2013-03-22 07:43:00,74.7,64.6,30.01,ENE,59,0.0,1.0,71,0.00,,,0.00,meteohub,2013-03-22 17:43:00,
2013-03-22 07:48:00,74.8,64.8,30.01,WNW,283,3.0,3.0,71,0.00,,,0.00,meteohub,2013-03-22 17:48:00,
2013-03-22 07:53:00,74.8,64.8,30.02,WNW,289,3.0,3.0,71,0.00,,,0.00,meteohub,2013-03-22 17:53:00,
2013-03-22 07:58:00,74.8,64.8,30.02,WNW,287,2.0,3.0,71,0.00,,,0.00,meteohub,2013-03-22 17:58:00,
2013-03-22 08:04:00,74.8,64.8,30.02,West,281,2.0,5.0,71,0.00,,,0.00,meteohub,2013-03-22 18:04:00,
2013-03-22 08:09:00,74.7,65.1,30.02,WNW,287,2.0,5.0,72,0.00,,,0.00,meteohub,2013-03-22 18:09:00,
2013-03-22 08:14:00,74.8,65.7,30.02,WNW,295,1.0,5.0,73,0.00,,,0.00,meteohub,2013-03-22 18:14:00,
2013-03-22 08:19:00,74.8,65.7,30.02,SW,215,1.0,3.0,73,0.00,,,0.00,meteohub,2013-03-22 18:19:00,
2013-03-22 08:24:00,74.8,65.7,30.02,WSW,243,1.0,3.0,73,0.00,,,0.00,meteohub,2013-03-22 18:24:00,
2013-03-22 08:29:00,74.8,65.1,30.02,SW,222,2.0,2.0,72,0.00,,,0.00,meteohub,2013-03-22 18:29:00,
2013-03-22 08:34:00,74.8,65.7,30.02,SW,229,3.0,3.0,73,0.00,,,0.00,meteohub,2013-03-22 18:34:00,
2013-03-22 08:40:00,74.7,65.8,30.03,SW,217,3.0,4.0,74,0.00,,,0.00,meteohub,2013-03-22 18:40:00,
2013-03-22 08:45:00,74.5,66.0,30.03,SW,226,2.0,4.0,75,0.00,,,0.00,meteohub,2013-03-22 18:45:00,
2013-03-22 08:50:00,74.5,65.7,30.03,WSW,242,1.0,4.0,74,0.00,,,0.00,meteohub,2013-03-22 18:50:00,
2013-03-22 08:56:00,74.7,66.2,30.04,WSW,250,0.0,3.0,75,0.00,,,0.00,meteohub,2013-03-22 18:56:00,
2013-03-22 09:01:00,74.7,66.2,30.03,SW,222,1.0,2.0,75,0.00,,,0.00,meteohub,2013-03-22 19:01:00,
2013-03-22 09:06:00,74.8,66.0,30.03,SW,232,1.0,2.0,74,0.00,,,0.00,meteohub,2013-03-22 19:06:00,
2013-03-22 09:12:00,75.0,66.2,30.03,West,271,1.0,2.0,74,0.00,,,0.00,meteohub,2013-03-22 19:12:00,
2013-03-22 09:17:00,75.0,66.9,30.03,WNW,296,0.0,2.0,76,0.00,,,0.00,meteohub,2013-03-22 19:17:00,
2013-03-22 09:22:00,75.4,67.3,30.03,NW,306,2.0,3.0,76,0.00,,,0.00,meteohub,2013-03-22 19:22:00,
2013-03-22 09:27:00,75.4,67.6,30.03,WNW,302,3.0,4.0,77,0.00,,,0.00,meteohub,2013-03-22 19:27:00,
2013-03-22 09:32:00,75.4,68.4,30.03,WNW,294,1.0,4.0,79,0.00,,,0.00,meteohub,2013-03-22 19:32:00,
2013-03-22 09:37:00,75.6,68.5,30.03,WSW,242,5.0,5.0,79,0.00,,,0.00,meteohub,2013-03-22 19:37:00,
2013-03-22 09:42:00,75.7,68.4,30.02,West,266,4.0,5.0,78,0.00,,,0.00,meteohub,2013-03-22 19:42:00,
2013-03-22 09:47:00,75.6,68.2,30.03,SW,235,4.0,8.0,78,0.00,,,0.00,meteohub,2013-03-22 19:47:00,
2013-03-22 09:52:00,75.9,68.9,30.03,SW,236,5.0,9.0,79,0.00,,,0.00,meteohub,2013-03-22 19:52:00,
2013-03-22 09:57:00,75.9,68.5,30.03,SW,221,6.0,9.0,78,0.00,,,0.00,meteohub,2013-03-22 19:57:00,
2013-03-22 10:02:00,76.1,68.7,30.02,SW,225,7.0,9.0,78,0.00,,,0.00,meteohub,2013-03-22 20:02:00,
2013-03-22 10:07:00,76.1,68.7,30.02,SSW,205,5.0,10.0,78,0.00,,,0.00,meteohub,2013-03-22 20:07:00,
2013-03-22 10:12:00,76.5,69.1,30.02,WSW,243,5.0,10.0,78,0.00,,,0.00,meteohub,2013-03-22 20:12:00,
2013-03-22 10:17:00,76.6,68.5,30.02,SW,229,5.0,10.0,76,0.00,,,0.00,meteohub,2013-03-22 20:17:00,
2013-03-22 10:22:00,76.6,68.9,30.02,SSW,213,6.0,10.0,77,0.00,,,0.00,meteohub,2013-03-22 20:22:00,
2013-03-22 10:27:00,76.8,68.7,30.02,WSW,256,3.0,10.0,76,0.00,,,0.00,meteohub,2013-03-22 20:27:00,
2013-03-22 10:32:00,76.8,69.1,30.02,West,267,4.0,10.0,77,0.00,,,0.00,meteohub,2013-03-22 20:32:00,
2013-03-22 10:37:00,77.0,69.3,30.02,SW,229,5.0,10.0,77,0.00,,,0.00,meteohub,2013-03-22 20:37:00,
2013-03-22 10:42:00,77.2,69.1,30.02,SW,236,7.0,10.0,76,0.00,,,0.00,meteohub,2013-03-22 20:42:00,
2013-03-22 10:48:00,77.0,69.3,30.01,SW,217,8.0,8.0,77,0.00,,,0.00,meteohub,2013-03-22 20:48:00,
2013-03-22 10:53:00,76.6,68.9,30.01,WSW,242,5.0,11.0,77,0.00,,,0.00,meteohub,2013-03-22 20:53:00,
2013-03-22 10:58:00,76.5,69.1,30.01,WSW,240,8.0,11.0,78,0.00,,,0.00,meteohub,2013-03-22 20:58:00,
2013-03-22 11:03:00,76.3,68.9,30.01,WSW,243,4.0,11.0,78,0.00,,,0.00,meteohub,2013-03-22 21:03:00,
2013-03-22 11:08:00,76.1,69.1,30.01,SSE,158,4.0,10.0,79,0.00,,,0.00,meteohub,2013-03-22 21:08:00,
2013-03-22 11:14:00,75.9,69.3,30.01,West,264,4.0,10.0,80,0.00,,,0.00,meteohub,2013-03-22 21:14:00,
2013-03-22 11:19:00,75.7,69.1,30.00,WSW,253,4.0,11.0,80,0.00,,,0.00,meteohub,2013-03-22 21:19:00,
2013-03-22 11:24:00,75.6,68.9,30.01,WSW,257,4.0,11.0,80,0.00,,,0.00,meteohub,2013-03-22 21:24:00,
2013-03-22 11:30:00,75.7,69.1,30.00,SW,233,9.0,11.0,80,0.00,,,0.00,meteohub,2013-03-22 21:30:00,
2013-03-22 11:35:00,75.9,69.3,30.00,WSW,250,6.0,11.0,80,0.00,,,0.00,meteohub,2013-03-22 21:35:00,
2013-03-22 11:40:00,76.3,69.6,30.00,South,188,6.0,10.0,80,0.00,,,0.00,meteohub,2013-03-22 21:40:00,
2013-03-22 11:46:00,76.6,69.6,30.00,WSW,255,4.0,10.0,79,0.00,,,0.00,meteohub,2013-03-22 21:46:00,
2013-03-22 11:52:00,77.4,70.7,29.99,SW,217,5.0,10.0,80,0.00,,,0.00,meteohub,2013-03-22 21:52:00,
2013-03-22 11:57:00,77.7,70.0,29.99,SSE,166,5.0,10.0,77,0.00,,,0.00,meteohub,2013-03-22 21:57:00,
2013-03-22 12:02:00,77.7,70.0,29.99,WSW,250,6.0,10.0,77,0.00,,,0.00,meteohub,2013-03-22 22:02:00,
2013-03-22 12:08:00,77.4,70.0,29.99,WNW,290,6.0,12.0,78,0.00,,,0.00,meteohub,2013-03-22 22:08:00,
2013-03-22 12:13:00,76.8,69.8,29.99,WSW,240,6.0,12.0,79,0.00,,,0.00,meteohub,2013-03-22 22:13:00,
2013-03-22 12:18:00,76.5,69.8,29.99,SW,226,10.0,12.0,80,0.00,,,0.00,meteohub,2013-03-22 22:18:00,
2013-03-22 12:24:00,76.5,69.8,29.99,WSW,250,8.0,12.0,80,0.00,,,0.00,meteohub,2013-03-22 22:24:00,
2013-03-22 12:29:00,76.5,70.5,29.99,SW,228,6.0,12.0,82,0.00,,,0.00,meteohub,2013-03-22 22:29:00,
2013-03-22 12:34:00,76.6,70.0,29.98,WSW,256,5.0,13.0,80,0.00,,,0.00,meteohub,2013-03-22 22:34:00,
2013-03-22 12:40:00,76.5,69.8,29.98,SW,233,9.0,13.0,80,0.00,,,0.00,meteohub,2013-03-22 22:40:00,
2013-03-22 12:45:00,76.6,69.6,29.98,SW,234,9.0,11.0,79,0.00,,,0.00,meteohub,2013-03-22 22:45:00,
2013-03-22 12:50:00,76.6,69.6,29.98,West,259,4.0,11.0,79,0.00,,,0.00,meteohub,2013-03-22 22:50:00,
2013-03-22 12:55:00,76.5,69.4,29.98,SSW,213,6.0,11.0,79,0.00,,,0.00,meteohub,2013-03-22 22:55:00,
2013-03-22 13:00:00,76.5,69.8,29.98,WSW,243,8.0,11.0,80,0.00,,,0.00,meteohub,2013-03-22 23:00:00,
2013-03-22 13:05:00,76.5,69.8,29.97,WSW,245,5.0,9.0,80,0.00,,,0.00,meteohub,2013-03-22 23:05:00,
2013-03-22 13:10:00,76.5,70.2,29.98,SW,217,5.0,10.0,81,0.00,,,0.00,meteohub,2013-03-22 23:10:00,
2013-03-22 13:16:00,76.6,70.0,29.97,WSW,242,3.0,10.0,80,0.00,,,0.00,meteohub,2013-03-22 23:16:00,
2013-03-22 13:21:00,76.5,69.4,29.97,WSW,253,5.0,10.0,79,0.00,,,0.00,meteohub,2013-03-22 23:21:00,
2013-03-22 13:27:00,75.9,69.3,29.97,WSW,238,4.0,8.0,80,0.00,,,0.00,meteohub,2013-03-22 23:27:00,
2013-03-22 13:32:00,75.9,68.9,29.97,WSW,238,6.0,8.0,79,0.00,,,0.00,meteohub,2013-03-22 23:32:00,
2013-03-22 13:37:00,75.9,69.3,29.97,WSW,257,7.0,9.0,80,0.00,,,0.00,meteohub,2013-03-22 23:37:00,
2013-03-22 13:42:00,75.7,69.1,29.97,West,263,2.0,9.0,80,0.00,,,0.00,meteohub,2013-03-22 23:42:00,
2013-03-22 13:47:00,76.3,69.6,29.96,SW,228,4.0,9.0,80,0.00,,,0.00,meteohub,2013-03-22 23:47:00,
2013-03-22 13:52:00,75.9,69.6,29.96,West,265,3.0,8.0,81,0.00,,,0.00,meteohub,2013-03-22 23:52:00,
2013-03-22 13:57:00,76.1,69.8,29.96,WSW,257,6.0,8.0,81,0.00,,,0.00,meteohub,2013-03-22 23:57:00,
2013-03-22 14:02:00,76.3,70.3,29.96,West,280,4.0,8.0,82,0.00,,,0.00,meteohub,2013-03-23 00:02:00,
2013-03-22 14:07:00,76.1,70.2,29.96,West,264,4.0,8.0,82,0.00,,,0.00,meteohub,2013-03-23 00:07:00,
2013-03-22 14:12:00,76.3,70.0,29.96,West,259,4.0,9.0,81,0.00,,,0.00,meteohub,2013-03-23 00:12:00,
2013-03-22 14:17:00,76.1,69.8,29.96,SW,228,3.0,9.0,81,0.00,,,0.00,meteohub,2013-03-23 00:17:00,
2013-03-22 14:22:00,75.9,69.6,29.95,West,274,1.0,7.0,81,0.00,,,0.00,meteohub,2013-03-23 00:22:00,
2013-03-22 14:27:00,75.7,69.4,29.94,WNW,288,1.0,7.0,81,0.00,,,0.00,meteohub,2013-03-23 00:27:00,
2013-03-22 14:32:00,75.7,69.1,29.94,WNW,302,3.0,6.0,80,0.00,,,0.00,meteohub,2013-03-23 00:32:00,
2013-03-22 14:37:00,75.9,69.3,29.94,WSW,252,3.0,6.0,80,0.00,,,0.00,meteohub,2013-03-23 00:37:00,
2013-03-22 14:42:00,75.9,68.5,29.94,SSW,203,0.0,5.0,78,0.00,,,0.00,meteohub,2013-03-23 00:42:00,
2013-03-22 14:47:00,76.3,67.5,29.94,SW,224,1.0,5.0,74,0.00,,,0.00,meteohub,2013-03-23 00:47:00,
2013-03-22 14:53:00,76.6,66.6,29.94,WSW,242,4.0,9.0,71,0.00,,,0.00,meteohub,2013-03-23 00:53:00,
2013-03-22 14:58:00,76.8,66.7,29.94,SW,236,3.0,9.0,71,0.00,,,0.00,meteohub,2013-03-23 00:58:00,
2013-03-22 15:03:00,76.6,66.9,29.94,West,264,2.0,8.0,72,0.00,,,0.00,meteohub,2013-03-23 01:03:00,
2013-03-22 15:08:00,76.6,68.2,29.94,WNW,300,4.0,9.0,75,0.00,,,0.00,meteohub,2013-03-23 01:08:00,
2013-03-22 15:14:00,76.6,68.9,29.94,WNW,285,2.0,9.0,77,0.00,,,0.00,meteohub,2013-03-23 01:14:00,
2013-03-22 15:19:00,76.6,68.5,29.94,WSW,250,4.0,7.0,76,0.00,,,0.00,meteohub,2013-03-23 01:19:00,
2013-03-22 15:24:00,76.1,66.7,29.94,SW,233,2.0,6.0,73,0.00,,,0.00,meteohub,2013-03-23 01:24:00,
2013-03-22 15:29:00,75.9,65.8,29.94,SW,233,5.0,7.0,71,0.00,,,0.00,meteohub,2013-03-23 01:29:00,
2013-03-22 15:34:00,76.1,66.4,29.94,SSE,148,3.0,7.0,72,0.00,,,0.00,meteohub,2013-03-23 01:34:00,
2013-03-22 15:39:00,76.5,67.1,29.94,West,262,5.0,7.0,73,0.00,,,0.00,meteohub,2013-03-23 01:39:00,
2013-03-22 15:44:00,76.1,67.3,29.94,WNW,291,6.0,7.0,74,0.00,,,0.00,meteohub,2013-03-23 01:44:00,
2013-03-22 15:49:00,75.7,67.3,29.94,WSW,246,3.0,9.0,75,0.00,,,0.00,meteohub,2013-03-23 01:49:00,
2013-03-22 15:55:00,75.7,67.6,29.94,WSW,243,3.0,9.0,76,0.00,,,0.00,meteohub,2013-03-23 01:55:00,
2013-03-22 16:00:00,75.6,67.5,29.94,WSW,238,5.0,9.0,76,0.00,,,0.00,meteohub,2013-03-23 02:00:00,
2013-03-22 16:05:00,75.6,67.5,29.94,WSW,243,1.0,8.0,76,0.00,,,0.00,meteohub,2013-03-23 02:05:00,
2013-03-22 16:10:00,75.4,66.9,29.94,SW,230,4.0,5.0,75,0.00,,,0.00,meteohub,2013-03-23 02:10:00,
2013-03-22 16:15:00,75.4,66.2,29.93,SSW,210,1.0,5.0,73,0.00,,,0.00,meteohub,2013-03-23 02:15:00,
2013-03-22 16:20:00,75.4,66.2,29.93,SW,225,4.0,5.0,73,0.00,,,0.00,meteohub,2013-03-23 02:20:00,
2013-03-22 16:26:00,75.4,66.2,29.93,West,274,3.0,5.0,73,0.00,,,0.00,meteohub,2013-03-23 02:26:00,
2013-03-22 16:31:00,75.7,66.9,29.94,West,266,4.0,5.0,74,0.00,,,0.00,meteohub,2013-03-23 02:31:00,
2013-03-22 16:36:00,75.6,66.7,29.94,West,267,4.0,8.0,74,0.00,,,0.00,meteohub,2013-03-23 02:36:00,
2013-03-22 16:41:00,75.7,67.3,29.94,SW,229,4.0,8.0,75,0.00,,,0.00,meteohub,2013-03-23 02:41:00,
2013-03-22 16:46:00,75.6,67.5,29.94,WSW,252,3.0,8.0,76,0.00,,,0.00,meteohub,2013-03-23 02:46:00,
2013-03-22 16:51:00,75.4,67.6,29.94,WSW,239,3.0,7.0,77,0.00,,,0.00,meteohub,2013-03-23 02:51:00,
2013-03-22 16:57:00,75.2,67.8,29.94,WSW,242,3.0,6.0,78,0.00,,,0.00,meteohub,2013-03-23 02:57:00,
2013-03-22 17:02:00,75.0,67.6,29.94,WSW,246,4.0,6.0,78,0.00,,,0.00,meteohub,2013-03-23 03:02:00,
2013-03-22 17:07:00,75.0,68.0,29.94,WSW,240,4.0,6.0,79,0.00,,,0.00,meteohub,2013-03-23 03:07:00,
2013-03-22 17:12:00,74.8,67.8,29.94,WNW,290,3.0,6.0,79,0.00,,,0.00,meteohub,2013-03-23 03:12:00,
2013-03-22 17:17:00,74.8,67.8,29.94,NW,311,2.0,6.0,79,0.00,,,0.00,meteohub,2013-03-23 03:17:00,
2013-03-22 17:22:00,74.8,68.2,29.94,WNW,287,3.0,5.0,80,0.00,,,0.00,meteohub,2013-03-23 03:22:00,
2013-03-22 17:27:00,74.7,66.9,29.94,SW,233,3.0,5.0,77,0.00,,,0.00,meteohub,2013-03-23 03:27:00,
2013-03-22 17:32:00,74.8,67.1,29.94,SW,218,3.0,4.0,77,0.00,,,0.00,meteohub,2013-03-23 03:32:00,
2013-03-22 17:37:00,74.8,67.5,29.95,West,262,2.0,4.0,78,0.00,,,0.00,meteohub,2013-03-23 03:37:00,
2013-03-22 17:43:00,74.7,66.9,29.96,West,264,4.0,4.0,77,0.00,,,0.00,meteohub,2013-03-23 03:43:00,
2013-03-22 17:48:00,74.8,67.1,29.96,West,267,1.0,4.0,77,0.00,,,0.00,meteohub,2013-03-23 03:48:00,
2013-03-22 17:53:00,74.5,66.4,29.96,SSW,198,2.0,4.0,76,0.00,,,0.00,meteohub,2013-03-23 03:53:00,
2013-03-22 17:58:00,74.5,66.0,29.96,WSW,255,0.0,4.0,75,0.00,,,0.00,meteohub,2013-03-23 03:58:00,
2013-03-22 18:00:00,74.5,66.4,29.96,SW,217,1.0,4.0,76,0.00,,,0.00,meteohub,2013-03-23 04:00:00,
2013-03-22 18:01:00,74.5,66.0,29.96,SW,217,0.0,3.0,75,0.00,,,0.00,meteohub,2013-03-23 04:01:00,
2013-03-22 18:06:00,74.5,66.0,29.96,SSW,195,0.0,3.0,75,0.00,,,0.00,meteohub,2013-03-23 04:06:00,
2013-03-22 18:07:00,74.5,66.0,29.96,SSE,153,3.0,3.0,75,0.00,,,0.00,meteohub,2013-03-23 04:07:00,
2013-03-22 18:12:00,74.5,65.7,29.96,SSE,150,1.0,3.0,74,0.00,,,0.00,meteohub,2013-03-23 04:12:00,
2013-03-22 18:17:00,74.5,65.7,29.96,South,169,4.0,4.0,74,0.00,,,0.00,meteohub,2013-03-23 04:17:00,
2013-03-22 18:23:00,74.5,66.0,29.96,SW,217,1.0,6.0,75,0.00,,,0.00,meteohub,2013-03-23 04:23:00,
2013-03-22 18:28:00,74.5,66.0,29.96,SSE,148,1.0,6.0,75,0.00,,,0.00,meteohub,2013-03-23 04:28:00,
2013-03-22 18:33:00,74.3,66.2,29.96,SSW,198,3.0,6.0,76,0.00,,,0.00,meteohub,2013-03-23 04:33:00,
2013-03-22 18:38:00,74.1,66.0,29.96,SE,127,0.0,5.0,76,0.00,,,0.00,meteohub,2013-03-23 04:38:00,
2013-03-22 18:43:00,73.9,65.8,29.96,SSE,156,4.0,5.0,76,0.00,,,0.00,meteohub,2013-03-23 04:43:00,
2013-03-22 18:49:00,73.9,66.2,29.96,SE,125,1.0,5.0,77,0.00,,,0.00,meteohub,2013-03-23 04:49:00,
2013-03-22 18:54:00,73.9,66.2,29.96,SE,131,1.0,6.0,77,0.00,,,0.00,meteohub,2013-03-23 04:54:00,
2013-03-22 18:59:00,73.9,66.2,29.96,SE,133,1.0,6.0,77,0.00,,,0.00,meteohub,2013-03-23 04:59:00,
2013-03-22 19:04:00,73.9,66.2,29.96,SSE,156,2.0,6.0,77,0.00,,,0.00,meteohub,2013-03-23 05:04:00,
2013-03-22 19:10:00,73.8,66.0,29.97,SE,136,1.0,6.0,77,0.00,,,0.00,meteohub,2013-03-23 05:10:00,
2013-03-22 19:15:00,73.8,66.0,29.97,SE,129,2.0,6.0,77,0.00,,,0.00,meteohub,2013-03-23 05:15:00,
2013-03-22 19:20:00,73.8,66.0,29.97,ESE,122,1.0,4.0,77,0.00,,,0.00,meteohub,2013-03-23 05:20:00,
2013-03-22 19:26:00,73.8,66.0,29.97,SE,138,3.0,4.0,77,0.00,,,0.00,meteohub,2013-03-23 05:26:00,
2013-03-22 19:31:00,73.8,66.0,29.97,SE,131,2.0,4.0,77,0.00,,,0.00,meteohub,2013-03-23 05:31:00,
2013-03-22 19:37:00,73.8,66.0,29.97,SE,135,3.0,4.0,77,0.00,,,0.00,meteohub,2013-03-23 05:37:00,
2013-03-22 19:42:00,73.8,66.0,29.97,SE,124,1.0,4.0,77,0.00,,,0.00,meteohub,2013-03-23 05:42:00,
2013-03-22 19:47:00,73.6,65.8,29.97,SE,145,0.0,4.0,77,0.00,,,0.00,meteohub,2013-03-23 05:47:00,
2013-03-22 19:53:00,73.6,65.8,29.97,SE,127,1.0,4.0,77,0.00,,,0.00,meteohub,2013-03-23 05:53:00,
2013-03-22 19:58:00,73.6,65.8,29.97,SE,125,2.0,4.0,77,0.00,,,0.00,meteohub,2013-03-23 05:58:00,
2013-03-22 20:03:00,73.6,65.8,29.97,SE,129,1.0,5.0,77,0.00,,,0.00,meteohub,2013-03-23 06:03:00,
2013-03-22 20:08:00,73.4,65.7,29.98,SE,129,1.0,5.0,77,0.00,,,0.00,meteohub,2013-03-23 06:08:00,
2013-03-22 20:13:00,73.2,65.1,29.98,ESE,117,2.0,5.0,76,0.00,,,0.00,meteohub,2013-03-23 06:13:00,
2013-03-22 20:18:00,73.4,65.3,29.98,SE,140,2.0,4.0,76,0.00,,,0.00,meteohub,2013-03-23 06:18:00,
2013-03-22 20:24:00,73.2,65.1,29.98,SE,126,2.0,4.0,76,0.00,,,0.00,meteohub,2013-03-23 06:24:00,
2013-03-22 20:29:00,73.2,65.1,29.99,SSE,157,3.0,4.0,76,0.00,,,0.00,meteohub,2013-03-23 06:29:00,
2013-03-22 20:34:00,73.2,65.1,29.99,ESE,115,3.0,4.0,76,0.00,,,0.00,meteohub,2013-03-23 06:34:00,
2013-03-22 20:39:00,73.2,65.1,29.99,South,188,0.0,4.0,76,0.00,,,0.00,meteohub,2013-03-23 06:39:00,
2013-03-22 20:44:00,73.2,65.7,30.00,West,273,1.0,4.0,77,0.00,,,0.00,meteohub,2013-03-23 06:44:00,
2013-03-22 20:49:00,73.2,65.7,29.99,West,264,0.0,3.0,77,0.00,,,0.00,meteohub,2013-03-23 06:49:00,
2013-03-22 20:55:00,73.0,65.8,29.99,ESE,113,2.0,3.0,78,0.00,,,0.00,meteohub,2013-03-23 06:55:00,
2013-03-22 21:00:00,73.0,65.8,29.99,SE,127,3.0,3.0,78,0.00,,,0.00,meteohub,2013-03-23 07:00:00,
2013-03-22 21:05:00,73.2,65.7,29.99,ESE,113,1.0,3.0,77,0.00,,,0.00,meteohub,2013-03-23 07:05:00,
2013-03-22 21:10:00,73.0,65.5,29.99,SSE,158,1.0,3.0,77,0.00,,,0.00,meteohub,2013-03-23 07:10:00,
2013-03-22 21:15:00,73.0,65.5,29.99,ESE,115,0.0,2.0,77,0.00,,,0.00,meteohub,2013-03-23 07:15:00,
2013-03-22 21:20:00,72.9,65.3,29.99,ESE,118,0.0,2.0,77,0.00,,,0.00,meteohub,2013-03-23 07:20:00,
2013-03-22 21:26:00,72.7,65.1,30.00,ESE,120,1.0,1.0,77,0.00,,,0.00,meteohub,2013-03-23 07:26:00,
2013-03-22 21:31:00,72.7,65.5,30.00,ESE,104,1.0,1.0,78,0.00,,,0.00,meteohub,2013-03-23 07:31:00,
2013-03-22 21:36:00,72.3,65.1,29.99,ESE,103,1.0,2.0,78,0.00,,,0.00,meteohub,2013-03-23 07:36:00,
2013-03-22 21:41:00,72.3,65.1,29.99,ESE,119,0.0,2.0,78,0.00,,,0.00,meteohub,2013-03-23 07:41:00,
2013-03-22 21:47:00,72.3,65.5,29.98,SE,127,2.0,3.0,79,0.00,,,0.00,meteohub,2013-03-23 07:47:00,
2013-03-22 21:52:00,72.1,64.9,29.98,East,97,0.0,3.0,78,0.00,,,0.00,meteohub,2013-03-23 07:52:00,
2013-03-22 21:57:00,72.0,64.8,29.99,ESE,108,0.0,3.0,78,0.00,,,0.00,meteohub,2013-03-23 07:57:00,
2013-03-22 22:02:00,72.0,64.8,29.99,East,94,1.0,2.0,78,0.00,,,0.00,meteohub,2013-03-23 08:02:00,
2013-03-22 22:07:00,72.0,64.8,29.99,East,100,2.0,2.0,78,0.00,,,0.00,meteohub,2013-03-23 08:07:00,
2013-03-22 22:13:00,72.0,65.1,29.99,East,100,2.0,3.0,79,0.00,,,0.00,meteohub,2013-03-23 08:13:00,
2013-03-22 22:18:00,72.0,64.8,29.99,East,86,1.0,3.0,78,0.00,,,0.00,meteohub,2013-03-23 08:18:00,
2013-03-22 22:23:00,71.8,64.6,29.99,East,91,1.0,3.0,78,0.00,,,0.00,meteohub,2013-03-23 08:23:00,
2013-03-22 22:29:00,71.8,64.9,29.99,ESE,119,1.0,2.0,79,0.00,,,0.00,meteohub,2013-03-23 08:29:00,
2013-03-22 22:34:00,72.0,65.1,29.99,ESE,118,1.0,2.0,79,0.00,,,0.00,meteohub,2013-03-23 08:34:00,
2013-03-22 22:39:00,72.0,65.1,29.99,ESE,103,1.0,2.0,79,0.00,,,0.00,meteohub,2013-03-23 08:39:00,
2013-03-22 22:44:00,72.0,65.1,29.99,East,94,1.0,2.0,79,0.00,,,0.00,meteohub,2013-03-23 08:44:00,
2013-03-22 22:50:00,72.0,65.1,29.99,ESE,112,2.0,2.0,79,0.00,,,0.00,meteohub,2013-03-23 08:50:00,
2013-03-22 22:55:00,72.0,65.1,29.99,ESE,114,0.0,2.0,79,0.00,,,0.00,meteohub,2013-03-23 08:55:00,
2013-03-22 23:00:00,72.0,65.1,29.99,ESE,110,1.0,2.0,79,0.00,,,0.00,meteohub,2013-03-23 09:00:00,
2013-03-22 23:05:00,71.8,64.9,29.99,ESE,105,1.0,2.0,79,0.00,,,0.00,meteohub,2013-03-23 09:05:00,
2013-03-22 23:10:00,71.4,64.6,29.99,ESE,110,2.0,2.0,79,0.00,,,0.00,meteohub,2013-03-23 09:10:00,
2013-03-22 23:15:00,71.4,64.9,29.99,ESE,120,2.0,3.0,80,0.00,,,0.00,meteohub,2013-03-23 09:15:00,
2013-03-22 23:20:00,71.4,64.9,29.99,ESE,114,1.0,3.0,80,0.00,,,0.00,meteohub,2013-03-23 09:20:00,
2013-03-22 23:26:00,71.4,64.9,29.99,ESE,108,1.0,3.0,80,0.00,,,0.00,meteohub,2013-03-23 09:26:00,
2013-03-22 23:31:00,71.2,64.8,29.99,ESE,104,0.0,3.0,80,0.00,,,0.00,meteohub,2013-03-23 09:31:00,
2013-03-22 23:36:00,71.2,64.8,29.99,ESE,107,2.0,2.0,80,0.00,,,0.00,meteohub,2013-03-23 09:36:00,
2013-03-22 23:41:00,71.2,64.8,29.99,East,98,2.0,3.0,80,0.00,,,0.00,meteohub,2013-03-23 09:41:00,
2013-03-22 23:46:00,71.2,65.1,29.99,East,91,2.0,3.0,81,0.00,,,0.00,meteohub,2013-03-23 09:46:00,
2013-03-22 23:51:00,71.1,64.6,29.99,East,98,2.0,3.0,80,0.00,,,0.00,meteohub,2013-03-23 09:51:00,
2013-03-22 23:57:00,71.1,64.6,29.99,East,82,1.0,3.0,80,0.00,,,0.00,meteohub,2013-03-23 09:57:00,